createdAt,value
2022-10-17T00:01:12.070Z,24.00
2022-10-17T00:03:41.025Z,18.00
2022-10-17T00:06:12.865Z,21.10
2022-10-17T00:08:43.423Z,14.90
2022-10-17T00:11:20.574Z,19.10
2022-10-17T00:13:50.502Z,19.60
2022-10-17T00:16:31.312Z,21.80
2022-10-17T00:19:00.839Z,20.20
2022-10-17T00:21:29.060Z,18.80
2022-10-17T00:23:57.327Z,16.60
2022-10-17T00:26:27.929Z,20.30
2022-10-17T00:28:56.563Z,17.70
2022-10-17T00:31:25.370Z,21.60
2022-10-17T00:33:54.003Z,15.40
2022-10-17T00:36:25.821Z,20.10
2022-10-17T00:38:58.480Z,18.00
2022-10-17T00:41:30.506Z,14.20
2022-10-17T00:43:58.771Z,23.50
2022-10-17T00:46:36.053Z,18.40
2022-10-17T00:49:10.400Z,19.70
2022-10-17T00:51:49.522Z,17.60
2022-10-17T00:54:21.282Z,17.20
2022-10-17T00:56:50.167Z,17.90
2022-10-17T00:59:22.044Z,17.70
2022-10-17T01:02:14.782Z,21.70
2022-10-17T01:04:46.743Z,16.10
2022-10-17T01:07:14.947Z,23.80
2022-10-17T01:09:47.407Z,18.20
2022-10-17T01:12:25.437Z,15.80
2022-10-17T01:15:11.635Z,16.00
2022-10-17T01:17:58.444Z,22.50
2022-10-17T01:20:41.627Z,21.40
2022-10-17T01:23:32.296Z,15.70
2022-10-17T01:26:36.090Z,18.80
2022-10-17T01:29:23.675Z,15.50
2022-10-17T01:32:03.631Z,18.60
2022-10-17T01:34:39.345Z,17.60
2022-10-17T01:37:54.070Z,21.60
2022-10-17T01:40:25.975Z,16.80
2022-10-17T01:45:52.735Z,16.80
2022-10-17T01:48:26.975Z,14.20
2022-10-17T01:51:03.313Z,20.30
2022-10-17T01:53:40.826Z,23.90
2022-10-17T01:56:13.386Z,18.90
2022-10-17T01:58:48.590Z,19.30
2022-10-17T02:01:19.212Z,18.50
2022-10-17T02:03:51.232Z,16.00
2022-10-17T02:06:19.456Z,20.90
2022-10-17T02:08:50.049Z,44.70
2022-10-17T02:11:27.759Z,31.00
2022-10-17T02:14:02.264Z,18.90
2022-10-17T02:17:00.715Z,24.60
2022-10-17T02:19:32.610Z,32.10
2022-10-17T02:22:12.530Z,19.60
2022-10-17T02:24:52.993Z,14.70
2022-10-17T02:27:48.002Z,17.00
2022-10-17T02:30:42.386Z,16.40
2022-10-17T02:33:29.032Z,18.80
2022-10-17T02:36:03.294Z,25.10
2022-10-17T02:38:33.538Z,24.30
2022-10-17T02:41:04.284Z,33.50
2022-10-17T02:43:34.377Z,18.00
2022-10-17T02:46:02.757Z,20.20
2022-10-17T02:48:51.011Z,20.30
2022-10-17T02:51:22.289Z,37.00
2022-10-17T02:53:59.526Z,18.00
2022-10-17T02:56:31.309Z,16.80
2022-10-17T02:59:03.653Z,21.00
2022-10-17T03:01:32.070Z,24.90
2022-10-17T03:04:12.919Z,31.20
2022-10-17T03:06:41.838Z,22.50
2022-10-17T03:09:10.016Z,17.10
2022-10-17T03:11:38.485Z,18.70
2022-10-17T03:14:07.569Z,26.40
2022-10-17T03:16:35.755Z,26.90
2022-10-17T03:19:05.309Z,22.80
2022-10-17T03:21:36.662Z,20.70
2022-10-17T03:24:05.418Z,18.60
2022-10-17T03:26:33.686Z,19.30
2022-10-17T03:29:02.046Z,19.10
2022-10-17T03:31:30.589Z,24.90
2022-10-17T03:33:59.358Z,16.50
2022-10-17T03:36:27.565Z,19.70
2022-10-17T03:38:56.427Z,14.70
2022-10-17T03:41:24.704Z,17.40
2022-10-17T03:43:54.749Z,22.40
2022-10-17T03:46:23.033Z,22.00
2022-10-17T03:48:51.618Z,25.30
2022-10-17T03:51:19.987Z,16.40
2022-10-17T03:53:52.667Z,33.80
2022-10-17T03:56:24.147Z,15.80
2022-10-17T03:58:57.845Z,24.50
2022-10-17T04:01:26.233Z,18.40
2022-10-17T04:03:56.925Z,20.90
2022-10-17T04:06:27.188Z,18.20
2022-10-17T04:08:55.553Z,18.20
2022-10-17T04:11:33.226Z,18.30
2022-10-17T04:14:01.560Z,20.70
2022-10-17T04:16:30.374Z,21.80
2022-10-17T04:19:04.104Z,23.80
2022-10-17T04:21:37.267Z,18.60
2022-10-17T04:24:11.863Z,20.70
2022-10-17T04:26:46.193Z,21.30
2022-10-17T04:29:15.380Z,23.10
2022-10-17T04:31:44.564Z,37.60
2022-10-17T04:36:48.259Z,26.20
2022-10-17T04:39:16.465Z,46.70
2022-10-17T04:41:44.958Z,28.80
2022-10-17T04:44:13.809Z,18.80
2022-10-17T04:46:45.432Z,24.90
2022-10-17T04:49:13.550Z,18.80
2022-10-17T04:51:43.380Z,17.60
2022-10-17T04:54:18.403Z,20.00
2022-10-17T04:56:49.214Z,18.30
2022-10-17T04:59:17.570Z,21.10
2022-10-17T05:01:45.858Z,21.00
2022-10-17T05:04:14.465Z,15.50
2022-10-17T05:06:42.704Z,20.50
2022-10-17T05:09:31.106Z,19.40
2022-10-17T05:11:59.563Z,18.40
2022-10-17T05:14:28.049Z,17.40
2022-10-17T05:16:56.357Z,17.80
2022-10-17T05:19:25.697Z,24.20
2022-10-17T05:21:53.846Z,27.70
2022-10-17T05:24:22.067Z,23.70
2022-10-17T05:26:52.331Z,15.40
2022-10-17T05:29:20.613Z,20.40
2022-10-17T05:31:53.313Z,20.50
2022-10-17T05:34:21.600Z,16.90
2022-10-17T05:36:50.016Z,28.60
2022-10-17T05:39:20.447Z,25.60
2022-10-17T05:41:51.535Z,34.40
2022-10-17T05:44:19.778Z,16.40
2022-10-17T05:46:52.734Z,16.30
2022-10-17T05:49:32.678Z,17.40
2022-10-17T05:52:09.307Z,22.00
2022-10-17T05:54:45.861Z,14.80
2022-10-17T05:57:14.435Z,17.30
2022-10-17T05:59:42.823Z,15.30
2022-10-17T06:02:14.933Z,14.90
2022-10-17T06:04:46.264Z,18.10
2022-10-17T06:07:16.983Z,16.40
2022-10-17T06:12:19.018Z,18.10
2022-10-17T06:14:48.043Z,15.30
2022-10-17T06:17:16.833Z,15.80
2022-10-17T06:19:45.866Z,17.60
2022-10-17T06:22:16.443Z,17.30
2022-10-17T06:24:46.469Z,16.20
2022-10-17T06:27:15.998Z,18.20
2022-10-17T06:29:44.251Z,21.90
2022-10-17T06:32:14.917Z,18.30
2022-10-17T06:34:47.129Z,19.10
2022-10-17T06:37:16.408Z,17.00
2022-10-17T06:39:45.392Z,16.40
2022-10-17T06:42:17.652Z,16.30
2022-10-17T06:45:05.879Z,15.30
2022-10-17T06:47:47.112Z,16.00
2022-10-17T06:50:29.515Z,18.40
2022-10-17T06:53:35.126Z,17.40
2022-10-17T06:56:29.348Z,17.20
2022-10-17T06:58:57.593Z,22.50
2022-10-17T07:01:36.772Z,17.20
2022-10-17T07:04:06.325Z,13.60
2022-10-17T07:06:35.631Z,15.20
2022-10-17T07:09:09.979Z,18.10
2022-10-17T07:11:39.020Z,15.20
2022-10-17T07:14:07.212Z,16.40
2022-10-17T07:16:36.546Z,20.00
2022-10-17T07:19:14.598Z,16.80
2022-10-17T07:21:42.817Z,19.80
2022-10-17T07:24:13.410Z,16.50
2022-10-17T07:26:44.557Z,18.50
2022-10-17T07:29:13.134Z,21.90
2022-10-17T07:31:49.070Z,15.70
2022-10-17T07:34:17.309Z,14.30
2022-10-17T07:36:46.339Z,15.80
2022-10-17T07:39:15.926Z,22.90
2022-10-17T07:41:44.251Z,18.90
2022-10-17T07:44:12.518Z,17.60
2022-10-17T07:46:45.586Z,14.90
2022-10-17T07:49:13.963Z,16.60
2022-10-17T07:51:42.724Z,19.50
2022-10-17T07:54:10.942Z,26.30
2022-10-17T07:56:39.195Z,15.20
2022-10-17T07:59:09.370Z,15.50
2022-10-17T08:01:38.216Z,23.30
2022-10-17T08:04:06.437Z,16.30
2022-10-17T08:06:34.696Z,14.90
2022-10-17T08:09:03.721Z,18.80
2022-10-17T08:11:31.962Z,16.50
2022-10-17T08:14:00.163Z,14.60
2022-10-17T08:16:28.389Z,17.60
2022-10-17T08:18:56.946Z,20.90
2022-10-17T08:21:25.150Z,15.00
2022-10-17T08:23:54.012Z,14.30
2022-10-17T08:26:22.477Z,17.50
2022-10-17T08:28:50.670Z,18.30
2022-10-17T08:31:20.789Z,22.10
2022-10-17T08:33:50.518Z,19.00
2022-10-17T08:36:20.942Z,16.90
2022-10-17T08:38:52.806Z,13.90
2022-10-17T08:41:27.279Z,18.00
2022-10-17T08:43:55.943Z,13.70
2022-10-17T08:46:31.870Z,18.60
2022-10-17T08:49:03.030Z,14.40
2022-10-17T08:51:37.087Z,13.60
2022-10-17T08:54:26.576Z,16.30
2022-10-17T08:56:55.720Z,15.10
2022-10-17T08:59:28.170Z,14.50
2022-10-17T09:01:56.330Z,16.40
2022-10-17T09:04:52.445Z,18.50
2022-10-17T09:07:43.061Z,15.20
2022-10-17T09:10:29.450Z,15.10
2022-10-17T09:13:27.493Z,15.10
2022-10-17T09:16:11.586Z,20.30
2022-10-17T09:19:11.131Z,14.60
2022-10-17T09:22:04.427Z,18.90
2022-10-17T09:25:05.398Z,16.30
2022-10-17T09:27:45.779Z,19.90
2022-10-17T09:30:40.112Z,15.40
2022-10-17T09:33:34.642Z,17.70
2022-10-17T09:36:10.906Z,18.40
2022-10-17T09:38:43.063Z,16.60
2022-10-17T09:41:43.609Z,15.90
2022-10-17T09:44:20.057Z,15.60
2022-10-17T09:47:24.309Z,12.10
2022-10-17T09:49:53.305Z,16.40
2022-10-17T09:52:33.773Z,15.10
2022-10-17T09:55:16.621Z,14.80
2022-10-17T09:57:57.369Z,15.40
2022-10-17T10:00:31.875Z,15.90
2022-10-17T10:06:02.600Z,17.80
2022-10-17T10:08:35.102Z,17.20
2022-10-17T10:11:13.517Z,16.30
2022-10-17T10:13:50.707Z,15.90
2022-10-17T10:16:33.113Z,14.10
2022-10-17T10:19:02.816Z,14.30
2022-10-17T10:21:37.153Z,17.60
2022-10-17T10:24:09.819Z,17.90
2022-10-17T10:26:49.221Z,15.70
2022-10-17T10:29:40.239Z,16.10
2022-10-17T10:32:18.334Z,17.30
2022-10-17T10:34:52.854Z,16.90
2022-10-17T10:37:33.593Z,17.90
2022-10-17T10:40:08.241Z,15.90
2022-10-17T10:42:39.582Z,23.80
2022-10-17T10:45:42.744Z,21.40
2022-10-17T10:48:37.119Z,16.90
2022-10-17T10:51:09.005Z,13.50
2022-10-17T10:53:42.045Z,12.00
2022-10-17T10:56:19.286Z,14.80
2022-10-17T10:58:55.398Z,16.20
2022-10-17T11:01:53.343Z,17.20
2022-10-17T11:04:56.362Z,13.10
2022-10-17T11:07:33.265Z,14.10
2022-10-17T11:10:16.957Z,15.80
2022-10-17T11:13:29.138Z,17.50
2022-10-17T11:16:06.309Z,16.60
2022-10-17T11:18:52.645Z,13.10
2022-10-17T11:21:55.923Z,16.70
2022-10-17T11:24:30.020Z,12.60
2022-10-17T11:29:38.865Z,14.90
2022-10-17T11:32:25.142Z,17.10
2022-10-17T11:35:01.666Z,13.70
2022-10-17T11:37:48.394Z,13.20
2022-10-17T11:40:31.649Z,14.00
2022-10-17T11:43:07.081Z,11.90
2022-10-17T11:45:41.546Z,13.20
2022-10-17T11:48:20.253Z,13.50
2022-10-17T11:54:03.212Z,15.60
2022-10-17T11:56:56.764Z,16.40
2022-10-17T11:59:34.154Z,13.70
2022-10-17T12:02:10.017Z,15.70
2022-10-17T12:04:49.237Z,29.40
2022-10-17T12:07:29.705Z,15.20
2022-10-17T12:10:22.458Z,14.00
2022-10-17T12:12:50.738Z,16.20
2022-10-17T12:15:24.729Z,19.50
2022-10-17T12:18:04.361Z,13.90
2022-10-17T12:20:40.186Z,14.40
2022-10-17T12:23:11.266Z,13.90
2022-10-17T12:25:58.276Z,13.00
2022-10-17T12:28:37.763Z,18.40
2022-10-17T12:31:12.345Z,17.20
2022-10-17T12:33:46.752Z,13.90
2022-10-17T12:36:17.680Z,13.50
2022-10-17T12:38:49.860Z,17.90
2022-10-17T12:41:40.369Z,12.30
2022-10-17T12:44:15.194Z,14.40
2022-10-17T12:46:57.079Z,12.60
2022-10-17T12:49:54.348Z,12.30
2022-10-17T12:52:47.955Z,12.60
2022-10-17T12:55:24.088Z,12.30
2022-10-17T12:58:03.140Z,13.00
2022-10-17T13:00:37.808Z,13.10
2022-10-17T13:03:17.928Z,20.40
2022-10-17T13:05:51.041Z,19.20
2022-10-17T13:08:40.205Z,14.90
2022-10-17T13:11:09.426Z,16.30
2022-10-17T13:13:53.811Z,17.10
2022-10-17T13:16:30.946Z,18.10
2022-10-17T13:19:01.413Z,14.50
2022-10-17T13:21:30.313Z,14.20
2022-10-17T13:23:58.448Z,19.40
2022-10-17T13:26:29.007Z,14.90
2022-10-17T13:29:14.254Z,16.70
2022-10-17T13:31:44.727Z,13.40
2022-10-17T13:34:20.440Z,15.50
2022-10-17T13:36:53.750Z,13.90
2022-10-17T13:39:44.951Z,14.20
2022-10-17T13:42:20.547Z,18.00
2022-10-17T13:44:49.158Z,12.20
2022-10-17T13:47:27.348Z,17.90
2022-10-17T13:49:58.133Z,15.80
2022-10-17T13:52:30.146Z,14.90
2022-10-17T13:55:17.786Z,15.10
2022-10-17T13:57:46.710Z,13.90
2022-10-17T14:00:23.040Z,17.20
2022-10-17T14:02:51.296Z,19.40
2022-10-17T14:05:23.659Z,16.20
2022-10-17T14:10:49.654Z,15.10
2022-10-17T14:13:30.545Z,12.30
2022-10-17T14:16:01.545Z,26.80
2022-10-17T14:18:36.938Z,191.70
2022-10-17T14:24:28.226Z,65.40
2022-10-17T14:26:59.894Z,34.10
2022-10-17T14:29:50.208Z,33.80
2022-10-17T14:32:20.116Z,28.10
2022-10-17T14:35:01.424Z,25.00
2022-10-17T14:37:48.919Z,25.30
2022-10-17T14:40:18.957Z,20.30
2022-10-17T14:42:48.614Z,17.60
2022-10-17T14:45:27.388Z,19.90
2022-10-17T14:48:02.523Z,18.20
2022-10-17T14:50:33.135Z,17.10
2022-10-17T14:53:21.678Z,17.50
2022-10-17T14:56:06.121Z,16.00
2022-10-17T14:58:34.338Z,29.10
2022-10-17T15:01:02.585Z,18.80
2022-10-17T15:03:31.473Z,17.10
2022-10-17T15:06:20.383Z,31.30
2022-10-17T15:08:48.675Z,59.90
2022-10-17T15:11:16.902Z,132.20
2022-10-17T15:13:45.797Z,104.30
2022-10-17T15:16:19.999Z,127.20
2022-10-17T15:18:48.949Z,75.70
2022-10-17T15:21:33.672Z,47.00
2022-10-17T15:24:06.841Z,46.90
2022-10-17T15:26:35.298Z,44.50
2022-10-17T15:29:04.509Z,64.10
2022-10-17T15:31:33.654Z,52.60
2022-10-17T15:34:01.834Z,61.10
2022-10-17T15:36:37.746Z,64.30
2022-10-17T15:39:06.443Z,75.60
2022-10-17T15:41:34.741Z,38.80
2022-10-17T15:44:03.056Z,39.40
2022-10-17T15:46:34.732Z,27.20
2022-10-17T15:49:08.506Z,28.90
2022-10-17T15:51:36.810Z,26.80
2022-10-17T15:54:06.566Z,26.20
2022-10-17T15:56:43.430Z,29.40
2022-10-17T15:59:15.515Z,31.30
2022-10-17T16:01:44.569Z,27.00
2022-10-17T16:04:15.700Z,28.50
2022-10-17T16:06:43.935Z,23.00
2022-10-17T16:09:12.166Z,27.90
2022-10-17T16:11:43.396Z,24.80
2022-10-17T16:14:14.833Z,39.80
2022-10-17T16:16:43.303Z,40.60
2022-10-17T16:19:12.683Z,37.60
2022-10-17T16:21:42.323Z,33.50
2022-10-17T16:24:12.329Z,25.90
2022-10-17T16:26:40.751Z,30.40
2022-10-17T16:29:10.352Z,29.80
2022-10-17T16:31:42.902Z,25.50
2022-10-17T16:34:15.637Z,29.40
2022-10-17T16:36:43.882Z,21.00
2022-10-17T16:39:14.699Z,31.60
2022-10-17T16:41:42.869Z,28.30
2022-10-17T16:44:16.687Z,28.70
2022-10-17T16:46:45.065Z,25.70
2022-10-17T16:49:16.311Z,30.10
2022-10-17T16:51:44.634Z,32.70
2022-10-17T16:54:12.817Z,32.60
2022-10-17T16:56:42.366Z,47.10
2022-10-17T16:59:12.678Z,44.20
2022-10-17T17:01:41.884Z,37.80
2022-10-17T17:04:10.077Z,44.30
2022-10-17T17:06:38.281Z,41.50
2022-10-17T17:09:06.649Z,35.20
2022-10-17T17:11:36.214Z,36.30
2022-10-17T17:14:05.810Z,33.10
2022-10-17T17:16:35.202Z,36.40
2022-10-17T17:19:06.739Z,31.00
2022-10-17T17:21:35.805Z,40.50
2022-10-17T17:24:05.207Z,40.40
2022-10-17T17:26:37.969Z,45.70
2022-10-17T17:29:06.275Z,40.10
2022-10-17T17:31:35.955Z,69.20
2022-10-17T17:34:04.189Z,63.00
2022-10-17T17:36:36.674Z,50.40
2022-10-17T17:39:08.369Z,47.80
2022-10-17T17:41:36.569Z,52.00
2022-10-17T17:44:05.616Z,50.90
2022-10-17T17:46:33.802Z,42.70
2022-10-17T17:49:02.047Z,43.80
2022-10-17T17:51:30.290Z,41.10
2022-10-17T17:53:58.541Z,43.80
2022-10-17T17:56:30.295Z,40.20
2022-10-17T17:59:00.948Z,39.50
2022-10-17T18:01:32.337Z,39.80
2022-10-17T18:04:00.657Z,39.20
2022-10-17T18:06:29.219Z,35.70
2022-10-17T18:08:59.295Z,34.80
2022-10-17T18:11:28.541Z,37.90
2022-10-17T18:14:02.926Z,34.40
2022-10-17T18:16:33.146Z,35.40
2022-10-17T18:19:06.756Z,35.20
2022-10-17T18:21:36.200Z,34.30
2022-10-17T18:24:05.107Z,36.20
2022-10-17T18:26:34.646Z,37.70
2022-10-17T18:29:03.920Z,37.60
2022-10-17T18:31:37.915Z,38.70
2022-10-17T18:34:06.284Z,36.00
2022-10-17T18:36:37.377Z,30.20
2022-10-17T18:39:06.204Z,38.10
2022-10-17T18:41:34.921Z,36.70
2022-10-17T18:44:03.175Z,31.60
2022-10-17T18:46:41.928Z,31.90
2022-10-17T18:49:12.713Z,28.70
2022-10-17T18:51:42.569Z,30.10
2022-10-17T18:54:20.644Z,32.00
2022-10-17T18:56:54.781Z,34.80
2022-10-17T18:59:23.114Z,29.30
2022-10-17T19:01:51.505Z,28.30
2022-10-17T19:04:19.897Z,29.90
2022-10-17T19:06:48.346Z,30.50
2022-10-17T19:09:17.037Z,32.90
2022-10-17T19:11:45.222Z,27.10
2022-10-17T19:14:14.060Z,35.10
2022-10-17T19:16:46.364Z,29.30
2022-10-17T19:19:25.567Z,35.30
2022-10-17T19:21:54.014Z,29.60
2022-10-17T19:24:25.633Z,28.90
2022-10-17T19:26:56.330Z,26.60
2022-10-17T19:29:28.539Z,29.00
2022-10-17T19:31:56.937Z,26.00
2022-10-17T19:34:25.227Z,26.90
2022-10-17T19:36:56.101Z,27.40
2022-10-17T19:39:25.414Z,29.80
2022-10-17T19:41:54.153Z,30.50
2022-10-17T19:44:25.577Z,28.20
2022-10-17T19:46:54.642Z,22.80
2022-10-17T19:49:22.867Z,23.90
2022-10-17T19:51:51.022Z,26.10
2022-10-17T19:54:20.613Z,31.50
2022-10-17T19:56:48.819Z,35.70
2022-10-17T19:59:18.116Z,33.50
2022-10-17T20:01:46.574Z,27.00
2022-10-17T20:04:14.909Z,32.90
2022-10-17T20:06:43.099Z,31.60
2022-10-17T20:09:15.767Z,26.00
2022-10-17T20:11:46.271Z,30.30
2022-10-17T20:14:14.573Z,24.30
2022-10-17T20:16:44.954Z,24.00
2022-10-17T20:19:13.839Z,22.30
2022-10-17T20:21:43.665Z,25.80
2022-10-17T20:24:15.472Z,21.90
2022-10-17T20:26:45.254Z,24.30
2022-10-17T20:29:17.266Z,22.70
2022-10-17T20:31:46.662Z,23.50
2022-10-17T20:34:16.996Z,21.40
2022-10-17T20:36:45.817Z,25.10
2022-10-17T20:39:15.844Z,26.30
2022-10-17T20:41:45.431Z,22.50
2022-10-17T20:44:14.582Z,22.90
2022-10-17T20:47:00.591Z,24.00
2022-10-17T20:49:32.343Z,21.10
2022-10-17T20:52:01.423Z,24.20
2022-10-17T20:54:29.770Z,19.10
2022-10-17T20:57:01.072Z,23.80
2022-10-17T20:59:35.123Z,25.70
2022-10-17T21:02:05.466Z,24.80
2022-10-17T21:04:45.928Z,20.90
2022-10-17T21:07:15.748Z,19.50
2022-10-17T21:09:45.686Z,22.20
2022-10-17T21:12:21.643Z,25.40
2022-10-17T21:15:00.843Z,23.90
2022-10-17T21:17:29.040Z,19.90
2022-10-17T21:19:57.273Z,20.40
2022-10-17T21:22:30.805Z,18.40
2022-10-17T21:25:00.360Z,17.00
2022-10-17T21:27:28.708Z,21.50
2022-10-17T21:29:57.016Z,21.30
2022-10-17T21:32:40.045Z,18.40
2022-10-17T21:35:13.524Z,19.70
2022-10-17T21:37:41.785Z,21.00
2022-10-17T21:40:10.522Z,19.40
2022-10-17T21:42:38.771Z,22.80
2022-10-17T21:45:14.997Z,22.20
2022-10-17T21:47:55.001Z,22.80
2022-10-17T21:50:29.457Z,18.90
2022-10-17T21:52:58.650Z,20.60
2022-10-17T21:55:26.790Z,22.10
2022-10-17T21:57:54.915Z,20.40
2022-10-17T22:00:23.230Z,20.20
2022-10-17T22:02:51.408Z,22.10
2022-10-17T22:05:19.676Z,21.50
2022-10-17T22:07:48.055Z,19.70
2022-10-17T22:10:16.198Z,19.30
2022-10-17T22:12:44.400Z,21.90
2022-10-17T22:17:45.696Z,18.80
2022-10-17T22:20:14.215Z,17.70
2022-10-17T22:22:42.344Z,25.00
2022-10-17T22:25:10.491Z,17.70
2022-10-17T22:27:38.786Z,18.40
2022-10-17T22:30:07.537Z,21.60
2022-10-17T22:32:35.657Z,23.10
2022-10-17T22:35:04.106Z,23.00
2022-10-17T22:37:32.536Z,16.00
2022-10-17T22:40:01.078Z,18.40
2022-10-17T22:42:31.820Z,20.40
2022-10-17T22:45:03.002Z,22.10
2022-10-17T22:47:31.967Z,17.50
2022-10-17T22:50:00.429Z,19.70
2022-10-17T22:52:28.801Z,18.80
2022-10-17T22:54:57.490Z,22.20
2022-10-17T22:57:25.610Z,17.70
2022-10-17T22:59:53.745Z,22.60
2022-10-17T23:02:21.906Z,17.70
2022-10-17T23:04:50.064Z,19.40
2022-10-17T23:07:18.309Z,22.10
2022-10-17T23:09:46.561Z,20.20
2022-10-17T23:12:14.706Z,20.60
2022-10-17T23:14:43.684Z,18.80
2022-10-17T23:17:13.142Z,18.60
2022-10-17T23:19:41.259Z,19.70
2022-10-17T23:22:10.090Z,19.40
2022-10-17T23:24:38.407Z,20.00
2022-10-17T23:27:06.536Z,17.60
2022-10-17T23:29:35.353Z,19.20
2022-10-17T23:32:03.634Z,19.00
2022-10-17T23:34:31.854Z,17.50
2022-10-17T23:37:00.046Z,17.60
2022-10-17T23:39:28.225Z,21.20
2022-10-17T23:41:56.326Z,18.20
2022-10-17T23:44:24.578Z,15.60
2022-10-17T23:46:52.809Z,18.70
2022-10-17T23:49:20.970Z,23.10
2022-10-17T23:51:49.239Z,19.70
2022-10-17T23:54:17.647Z,17.40
2022-10-17T23:56:45.896Z,15.60
2022-10-17T23:59:14.043Z,29.70
